ADDS METAR Data INFO
IDs: Format: Raw Decoded Include TAF

Data at: 1231 UTC 22 Feb 2018

KPWK 221152Z AUTO 05009KT 10SM CLR 01/M02 A3056 RMK AO2 SLP357 T00061022 10006 21011 56001
KPWK 221052Z AUTO 04010KT 10SM CLR 00/M03 A3056 RMK AO2 SLP358 T00001028
KPWK 220952Z AUTO 04009KT 10SM CLR 00/M03 A3056 RMK AO2 SLP355 T00001033
KPWK 220852Z AUTO 05009KT 10SM CLR 00/M04 A3056 RMK AO2 SLP357 T00001044 58012
KPWK 220752Z AUTO 04008KT 10SM CLR M01/M05 A3059 RMK AO2 SLP368 T10061050
KPWK 220652Z AUTO 03010KT 10SM CLR M01/M05 A3060 RMK AO2 SLP369 T10111050
KPWK 220552Z AUTO 05009KT 10SM CLR M01/M06 A3060 RMK AO2 SLP370 T10111056 11011 21017 400111028 58021
KPWK 220452Z AUTO 04007KT 10SM CLR M02/M06 A3063 RMK AO2 SLP380 T10171061
KPWK 220352Z AUTO 03007KT 10SM CLR M02/M07 A3065 RMK AO2 SLP386 T10171067
KPWK 212352Z 05007KT 10SM CLR M02/M07 A3063 RMK AO2 SLP381 T10171067 10006 21017 53011
KPWK 212252Z 05006KT 10SM CLR M01/M06 A3062 RMK AO2 SLP376 T10111061
KPWK 212152Z 05007KT 10SM CLR M01/M06 A3060 RMK AO2 SLP369 T10061061
KPWK 212052Z 04007KT 10SM CLR 00/M06 A3060 RMK AO2 SLP369 T00001061 53006
KPWK 211952Z 03006KT 10SM CLR 00/M07 A3059 RMK AO2 SLP365 T00001072
KPWK 211852Z VRB05KT 10SM CLR 00/M07 A3059 RMK AO2 SLP366 T00001072
KPWK 211752Z 01006KT 10SM CLR M01/M08 A3058 RMK AO2 SLP363 T10061083 11006 21028 51022
KPWK 211652Z 34008KT 10SM CLR M01/M07 A3058 RMK AO2 SLP363 T10111072
KPWK 211552Z 35007KT 10SM CLR M02/M07 A3055 RMK AO2 SLP353 T10221072
KPWK 211452Z 33008KT 10SM CLR M02/M08 A3052 RMK AO2 SLP341 T10221078 53036
KPWK 211352Z 33010KT 10SM CLR M03/M07 A3048 RMK AO2 SLP328 T10281067
KPWK 211252Z 33008KT 10SM CLR M03/M07 A3044 RMK AO2 SLP314 T10281067
KPWK 210752Z AUTO 34007KT 10SM OVC014 01/M02 A3025 RMK AO2 RAE00UPB00E24 SLP248 P0000 T00061017
KPWK 210710Z AUTO 34009G15KT 10SM UP OVC014 01/M01 A3022 RMK AO2 RAE00UPB00 P0000 T00061011
KPWK 210652Z AUTO 32011KT 10SM -RA OVC015 01/M01 A3022 RMK AO2 UPB16E35 PRESRR SLP236 P0000 T00061011
KPWK 210640Z AUTO 34007KT 10SM -RA OVC014 01/M01 A3021 RMK AO2 UPB16E35 P0000 T00111011
KPWK 210603Z AUTO 32009KT 10SM -RA OVC015 01/M01 A3020 RMK AO2 P0000 T00111011
KPWK 210552Z AUTO 31008KT 10SM -RA OVC014 01/M01 A3019 RMK AO2 RAE39B47UPB27E47 SLP225 P0002 60021 T00111006 10044 20011 401890011 51025